createdAt,value
2023-02-03T00:02:05.762Z,0.70
2023-02-03T00:04:32.643Z,0.68
2023-02-03T00:06:59.507Z,0.60
2023-02-03T00:09:26.281Z,0.57
2023-02-03T00:11:54.125Z,0.80
2023-02-03T00:14:20.894Z,0.70
2023-02-03T00:16:47.763Z,0.73
2023-02-03T00:19:16.524Z,0.40
2023-02-03T00:21:44.258Z,0.55
2023-02-03T00:24:11.655Z,0.40
2023-02-03T00:26:43.152Z,0.40
2023-02-03T00:29:09.935Z,0.40
2023-02-03T00:31:37.110Z,1.23
2023-02-03T00:34:03.929Z,0.50
2023-02-03T00:36:30.732Z,0.43
2023-02-03T00:38:57.668Z,0.38
2023-02-03T00:41:30.748Z,0.50
2023-02-03T00:43:57.922Z,0.32
2023-02-03T00:46:24.768Z,0.77
2023-02-03T00:48:51.613Z,0.30
2023-02-03T00:51:18.363Z,0.82
2023-02-03T00:53:45.099Z,0.40
2023-02-03T00:56:12.932Z,0.55
2023-02-03T00:58:42.742Z,0.40
2023-02-03T01:01:10.263Z,0.30
2023-02-03T01:03:37.264Z,0.80
2023-02-03T01:06:19.983Z,0.43
2023-02-03T01:08:47.752Z,0.40
2023-02-03T01:11:18.772Z,0.75
2023-02-03T01:13:45.764Z,0.65
2023-02-03T01:16:16.145Z,0.50
2023-02-03T01:18:43.568Z,0.30
2023-02-03T01:21:17.901Z,0.40
2023-02-03T01:23:45.897Z,0.40
2023-02-03T01:26:16.518Z,0.40
2023-02-03T01:28:43.784Z,0.30
2023-02-03T01:31:15.418Z,0.50
2023-02-03T01:33:46.309Z,0.52
2023-02-03T01:36:14.280Z,0.40
2023-02-03T01:38:41.579Z,0.43
2023-02-03T01:41:15.441Z,0.50
2023-02-03T01:43:47.218Z,0.40
2023-02-03T01:46:46.181Z,0.40
2023-02-03T01:49:32.224Z,0.30
2023-02-03T01:51:59.635Z,0.40
2023-02-03T01:54:41.238Z,0.40
2023-02-03T01:57:25.809Z,0.50
2023-02-03T01:59:55.805Z,0.55
2023-02-03T02:02:23.374Z,0.30
2023-02-03T02:05:11.776Z,0.50
2023-02-03T02:07:39.493Z,0.30
2023-02-03T02:10:06.900Z,0.40
2023-02-03T02:12:33.712Z,0.50
2023-02-03T02:15:00.906Z,0.30
2023-02-03T02:17:57.267Z,0.40
2023-02-03T02:20:56.109Z,0.45
2023-02-03T02:23:46.289Z,0.43
2023-02-03T02:26:15.841Z,0.45
2023-02-03T02:29:22.717Z,0.50
2023-02-03T02:32:21.009Z,0.40
2023-02-03T02:35:02.301Z,0.30
2023-02-03T02:37:34.961Z,0.60
2023-02-03T02:40:10.631Z,0.40
2023-02-03T02:42:51.574Z,1.17
2023-02-03T02:45:28.107Z,0.40
2023-02-03T02:48:06.293Z,0.35
2023-02-03T02:50:39.891Z,0.40
2023-02-03T02:53:08.905Z,0.50
2023-02-03T02:55:39.228Z,0.40
2023-02-03T02:58:11.644Z,0.50
2023-02-03T03:00:41.392Z,0.50
2023-02-03T03:03:20.504Z,0.50
2023-02-03T03:06:57.301Z,0.45
2023-02-03T03:09:41.799Z,0.50
2023-02-03T03:12:23.884Z,0.28
2023-02-03T03:15:04.848Z,0.50
2023-02-03T03:17:35.628Z,0.60
2023-02-03T03:20:10.539Z,0.77
2023-02-03T03:22:46.654Z,0.82
2023-02-03T03:25:18.305Z,0.60
2023-02-03T03:27:52.312Z,0.50
2023-02-03T03:30:25.943Z,0.50
2023-02-03T03:32:53.230Z,7.45
2023-02-03T03:35:20.044Z,3.65
2023-02-03T03:38:00.347Z,0.80
2023-02-03T03:40:39.061Z,0.57
2023-02-03T03:43:14.887Z,0.70
2023-02-03T03:45:56.216Z,0.50
2023-02-03T03:48:50.590Z,0.80
2023-02-03T03:51:27.489Z,1.25
2023-02-03T03:53:58.573Z,1.10
2023-02-03T03:56:32.564Z,0.70
2023-02-03T03:59:02.577Z,0.55
2023-02-03T04:01:30.415Z,0.43
2023-02-03T04:04:02.492Z,0.68
2023-02-03T04:06:29.295Z,0.50
2023-02-03T04:08:56.281Z,0.40
2023-02-03T04:11:41.612Z,0.70
2023-02-03T04:14:09.155Z,0.60
2023-02-03T04:16:35.941Z,0.68
2023-02-03T04:19:02.765Z,0.80
2023-02-03T04:21:29.528Z,0.60
2023-02-03T04:23:57.079Z,0.50
2023-02-03T04:26:24.196Z,0.40
2023-02-03T04:28:51.066Z,0.50
2023-02-03T04:31:18.120Z,0.63
2023-02-03T04:33:44.946Z,0.60
2023-02-03T04:36:11.713Z,0.57
2023-02-03T04:38:38.505Z,0.68
2023-02-03T04:41:05.358Z,1.35
2023-02-03T04:43:32.090Z,2.33
2023-02-03T04:46:01.136Z,1.33
2023-02-03T04:48:28.566Z,1.27
2023-02-03T04:50:55.434Z,0.82
2023-02-03T04:53:22.202Z,1.15
2023-02-03T04:55:49.049Z,1.17
2023-02-03T04:58:15.831Z,2.70
2023-02-03T05:00:42.638Z,1.15
2023-02-03T05:03:09.425Z,0.85
2023-02-03T05:05:36.220Z,0.90
2023-02-03T05:08:02.955Z,0.60
2023-02-03T05:10:29.861Z,1.63
2023-02-03T05:12:56.756Z,0.75
2023-02-03T05:15:23.703Z,0.95
2023-02-03T05:17:55.774Z,1.02
2023-02-03T05:20:22.591Z,0.83
2023-02-03T05:22:49.344Z,1.13
2023-02-03T05:25:16.490Z,0.80
2023-02-03T05:27:43.782Z,0.80
2023-02-03T05:30:11.557Z,0.77
2023-02-03T05:32:38.360Z,1.00
2023-02-03T05:35:05.500Z,0.90
2023-02-03T05:37:32.313Z,0.90
2023-02-03T05:40:19.014Z,1.10
2023-02-03T05:42:49.707Z,1.48
2023-02-03T05:45:17.481Z,1.40
2023-02-03T05:47:44.288Z,0.85
2023-02-03T05:50:11.200Z,2.08
2023-02-03T05:52:38.039Z,1.10
2023-02-03T05:55:05.518Z,1.45
2023-02-03T05:57:32.501Z,1.38
2023-02-03T05:59:59.274Z,1.50
2023-02-03T06:02:26.033Z,1.00
2023-02-03T06:04:52.809Z,1.88
2023-02-03T06:07:19.565Z,1.50
2023-02-03T06:09:46.341Z,2.10
2023-02-03T06:12:13.094Z,1.80
2023-02-03T06:14:40.013Z,2.17
2023-02-03T06:17:06.772Z,1.42
2023-02-03T06:19:33.614Z,2.17
2023-02-03T06:22:00.362Z,2.45
2023-02-03T06:24:27.172Z,1.52
2023-02-03T06:26:53.916Z,1.52
2023-02-03T06:29:20.653Z,1.80
2023-02-03T06:31:47.535Z,1.45
2023-02-03T06:34:14.434Z,1.25
2023-02-03T06:36:41.177Z,1.58
2023-02-03T06:39:07.893Z,1.55
2023-02-03T06:41:34.629Z,1.00
2023-02-03T06:44:01.414Z,1.13
2023-02-03T06:46:30.282Z,1.40
2023-02-03T06:48:57.116Z,0.90
2023-02-03T06:51:25.001Z,0.73
2023-02-03T06:53:52.124Z,1.45
2023-02-03T06:56:19.069Z,1.27
2023-02-03T06:58:45.899Z,1.02
2023-02-03T07:01:12.696Z,0.93
2023-02-03T07:03:39.483Z,1.55
2023-02-03T07:06:06.836Z,1.60
2023-02-03T07:08:33.650Z,1.88
2023-02-03T07:11:00.398Z,2.72
2023-02-03T07:13:27.179Z,2.03
2023-02-03T07:15:53.965Z,2.35
2023-02-03T07:18:45.941Z,1.60
2023-02-03T07:21:11.993Z,1.50
2023-02-03T07:23:38.793Z,1.83
2023-02-03T07:26:07.437Z,1.70
2023-02-03T07:28:35.625Z,2.72
2023-02-03T07:31:08.385Z,1.90
2023-02-03T07:36:03.535Z,1.88
2023-02-03T07:38:30.484Z,1.35
2023-02-03T07:40:57.572Z,1.55
2023-02-03T07:43:24.627Z,2.20
2023-02-03T07:45:51.382Z,1.38
2023-02-03T07:48:18.177Z,1.10
2023-02-03T07:50:45.926Z,1.02
2023-02-03T07:53:12.753Z,1.42
2023-02-03T07:55:40.279Z,1.20
2023-02-03T07:58:07.212Z,1.50
2023-02-03T08:00:34.803Z,14.70
2023-02-03T08:03:01.756Z,15.25
2023-02-03T08:05:30.374Z,10.43
2023-02-03T08:07:57.897Z,8.00
2023-02-03T08:10:24.649Z,19.10
2023-02-03T08:12:55.969Z,9.20
2023-02-03T08:15:22.882Z,4.55
2023-02-03T08:17:50.509Z,8.40
2023-02-03T08:20:18.179Z,7.93
2023-02-03T08:22:45.089Z,4.13
2023-02-03T08:25:12.269Z,2.80
2023-02-03T08:27:39.717Z,3.95
2023-02-03T08:30:09.066Z,2.20
2023-02-03T08:32:35.984Z,3.85
2023-02-03T08:35:03.156Z,2.42
2023-02-03T08:37:32.721Z,3.72
2023-02-03T08:40:00.205Z,2.60
2023-02-03T08:42:27.458Z,1.88
2023-02-03T08:44:54.347Z,1.20
2023-02-03T08:47:22.422Z,1.83
2023-02-03T08:49:49.197Z,1.85
2023-02-03T08:52:18.953Z,1.83
2023-02-03T08:54:47.182Z,1.98
2023-02-03T08:57:14.588Z,2.65
2023-02-03T08:59:43.533Z,1.70
2023-02-03T09:02:17.885Z,3.22
2023-02-03T09:04:46.194Z,2.53
2023-02-03T09:07:13.976Z,2.22
2023-02-03T09:09:40.879Z,1.50
2023-02-03T09:12:08.415Z,1.48
2023-02-03T09:14:35.686Z,1.40
2023-02-03T09:17:04.475Z,2.63
2023-02-03T09:19:34.239Z,2.38
2023-02-03T09:22:02.422Z,1.30
2023-02-03T09:24:29.472Z,1.80
2023-02-03T09:26:57.378Z,1.30
2023-02-03T09:29:24.246Z,1.40
2023-02-03T09:31:54.315Z,2.20
2023-02-03T09:34:21.877Z,1.40
2023-02-03T09:36:49.256Z,2.38
2023-02-03T09:39:16.203Z,1.45
2023-02-03T09:42:02.778Z,0.90
2023-02-03T09:44:38.709Z,1.15
2023-02-03T09:47:22.600Z,1.38
2023-02-03T09:49:59.592Z,0.88
2023-02-03T09:52:32.177Z,1.08
2023-02-03T09:55:34.639Z,2.17
2023-02-03T09:58:15.514Z,1.33
2023-02-03T10:01:02.076Z,1.95
2023-02-03T10:03:57.609Z,2.17
2023-02-03T10:06:36.983Z,2.53
2023-02-03T10:09:39.907Z,1.83
2023-02-03T10:12:12.228Z,2.15
2023-02-03T10:14:47.616Z,2.97
2023-02-03T10:17:30.724Z,3.65
2023-02-03T10:22:44.992Z,1.55
2023-02-03T10:25:14.728Z,1.15
2023-02-03T10:27:44.040Z,1.63
2023-02-03T10:30:24.047Z,1.00
2023-02-03T10:33:14.088Z,2.03
2023-02-03T10:36:19.610Z,1.35
2023-02-03T10:39:07.792Z,1.08
2023-02-03T10:41:35.139Z,1.10
2023-02-03T10:44:06.608Z,2.10
2023-02-03T10:46:40.150Z,1.83
2023-02-03T10:49:06.892Z,2.50
2023-02-03T10:51:43.483Z,1.50
2023-02-03T10:54:33.183Z,0.80
2023-02-03T10:57:12.198Z,1.13
2023-02-03T10:59:44.097Z,2.90
2023-02-03T11:02:26.239Z,0.40
2023-02-03T11:05:24.987Z,2.90
2023-02-03T11:07:53.894Z,2.10
2023-02-03T11:10:38.848Z,2.28
2023-02-03T11:13:26.317Z,2.80
2023-02-03T11:16:15.701Z,1.00
2023-02-03T11:18:46.808Z,0.60
2023-02-03T11:21:24.249Z,0.50
2023-02-03T11:24:00.858Z,1.08
2023-02-03T11:26:34.563Z,3.22
2023-02-03T11:29:03.326Z,0.93
2023-02-03T11:31:35.028Z,0.90
2023-02-03T11:34:16.138Z,2.05
2023-02-03T11:36:42.988Z,3.28
2023-02-03T11:39:18.064Z,2.08
2023-02-03T11:41:45.960Z,1.30
2023-02-03T11:44:26.326Z,0.77
2023-02-03T11:47:04.580Z,1.98
2023-02-03T11:50:21.179Z,0.60
2023-02-03T11:53:24.158Z,0.82
2023-02-03T11:56:33.044Z,2.03
2023-02-03T11:59:38.131Z,0.90
2023-02-03T12:03:00.072Z,0.40
2023-02-03T12:05:35.059Z,1.00
2023-02-03T12:08:35.832Z,0.75
2023-02-03T12:11:31.654Z,0.32
2023-02-03T12:14:28.939Z,0.93
2023-02-03T12:17:30.565Z,0.30
2023-02-03T12:20:37.171Z,0.77
2023-02-03T12:23:47.036Z,0.50
2023-02-03T12:26:35.116Z,0.30
2023-02-03T12:29:15.117Z,0.25
2023-02-03T12:31:59.438Z,0.43
2023-02-03T12:34:36.670Z,0.45
2023-02-03T12:37:17.761Z,0.60
2023-02-03T12:39:59.202Z,1.05
2023-02-03T12:42:35.809Z,0.20
2023-02-03T12:45:14.954Z,0.30
2023-02-03T12:48:05.445Z,0.20
2023-02-03T12:51:00.028Z,0.30
2023-02-03T12:53:35.605Z,0.40
2023-02-03T12:56:13.436Z,0.22
2023-02-03T12:58:55.858Z,0.40
2023-02-03T13:01:25.671Z,0.33
2023-02-03T13:04:17.716Z,0.50
2023-02-03T13:07:04.993Z,0.28
2023-02-03T13:09:58.676Z,0.40
2023-02-03T13:12:43.392Z,0.40
2023-02-03T13:15:22.986Z,0.40
2023-02-03T13:17:56.339Z,0.75
2023-02-03T13:20:31.532Z,0.25
2023-02-03T13:22:58.811Z,0.20
2023-02-03T13:25:32.646Z,0.20
2023-02-03T13:28:43.792Z,0.20
2023-02-03T13:31:37.872Z,0.20
2023-02-03T13:34:37.050Z,0.30
2023-02-03T13:37:49.709Z,0.70
2023-02-03T13:40:43.480Z,0.82
2023-02-03T13:43:35.807Z,0.30
2023-02-03T13:46:07.956Z,0.90
2023-02-03T13:48:35.905Z,0.60
2023-02-03T13:51:37.793Z,0.50
2023-02-03T13:54:17.562Z,0.90
2023-02-03T13:57:02.443Z,0.50
2023-02-03T13:59:38.799Z,0.75
2023-02-03T14:02:24.052Z,0.55
2023-02-03T14:04:59.111Z,0.60
2023-02-03T14:07:39.122Z,0.60
2023-02-03T14:10:20.976Z,0.70
2023-02-03T14:12:50.889Z,0.30
2023-02-03T14:15:28.386Z,0.30
2023-02-03T14:18:17.905Z,0.63
2023-02-03T14:20:51.317Z,0.95
2023-02-03T14:23:26.536Z,0.50
2023-02-03T14:25:59.608Z,1.00
2023-02-03T14:28:42.365Z,1.17
2023-02-03T14:31:23.858Z,0.50
2023-02-03T14:33:54.758Z,0.28
2023-02-03T14:36:38.142Z,0.55
2023-02-03T14:39:21.313Z,0.50
2023-02-03T14:44:32.647Z,0.32
2023-02-03T14:47:12.811Z,0.38
2023-02-03T14:50:13.123Z,0.32
2023-02-03T14:53:10.545Z,0.25
2023-02-03T14:56:04.334Z,0.40
2023-02-03T14:58:51.068Z,0.52
2023-02-03T15:01:36.168Z,0.30
2023-02-03T15:04:12.077Z,1.05
2023-02-03T15:06:45.743Z,0.82
2023-02-03T15:09:33.287Z,0.60
2023-02-03T15:12:00.160Z,0.40
2023-02-03T15:14:31.482Z,0.50
2023-02-03T15:17:04.527Z,0.32
2023-02-03T15:22:02.942Z,0.30
2023-02-03T15:24:37.075Z,0.40
2023-02-03T15:27:04.001Z,0.50
2023-02-03T15:29:36.278Z,0.40
2023-02-03T15:32:28.619Z,0.43
2023-02-03T15:34:57.194Z,0.30
2023-02-03T15:37:47.978Z,0.98
2023-02-03T15:40:23.956Z,0.77
2023-02-03T15:43:04.053Z,0.32
2023-02-03T15:45:55.887Z,0.50
2023-02-03T15:48:37.076Z,0.43
2023-02-03T15:51:17.529Z,0.47
2023-02-03T15:53:57.980Z,0.50
2023-02-03T15:56:41.139Z,0.47
2023-02-03T16:01:54.378Z,0.82
2023-02-03T16:04:22.388Z,0.50
2023-02-03T16:06:50.870Z,0.40
2023-02-03T16:09:26.290Z,0.30
2023-02-03T16:12:16.914Z,0.40
2023-02-03T16:14:45.105Z,1.15
2023-02-03T16:17:32.609Z,0.63
2023-02-03T16:20:32.335Z,0.35
2023-02-03T16:23:04.527Z,0.60
2023-02-03T16:25:35.824Z,0.85
2023-02-03T16:28:36.954Z,1.13
2023-02-03T16:31:42.506Z,5.07
2023-02-03T16:34:37.692Z,1.20
2023-02-03T16:37:45.478Z,1.05
2023-02-03T16:40:36.075Z,0.32
2023-02-03T16:43:22.945Z,2.80
2023-02-03T16:46:19.071Z,0.55
2023-02-03T16:49:04.956Z,0.40
2023-02-03T16:51:40.798Z,1.95
2023-02-03T16:54:13.137Z,0.40
2023-02-03T16:56:40.256Z,1.02
2023-02-03T16:59:07.319Z,0.60
2023-02-03T17:01:34.082Z,0.68
2023-02-03T17:04:00.871Z,1.00
2023-02-03T17:06:28.016Z,0.47
2023-02-03T17:08:56.648Z,0.70
2023-02-03T17:11:24.622Z,1.23
2023-02-03T17:13:52.196Z,0.82
2023-02-03T17:16:25.872Z,1.92
2023-02-03T17:18:53.603Z,1.08
2023-02-03T17:21:27.000Z,1.00
2023-02-03T17:23:54.190Z,0.50
2023-02-03T17:26:21.368Z,0.55
2023-02-03T17:28:48.110Z,1.70
2023-02-03T17:31:18.782Z,1.92
2023-02-03T17:33:46.878Z,1.65
2023-02-03T17:36:17.031Z,1.38
2023-02-03T17:54:54.327Z,5.07
2023-02-03T17:57:21.273Z,1.65
2023-02-03T17:59:48.078Z,2.15
2023-02-03T18:02:14.816Z,0.93
2023-02-03T18:04:42.340Z,0.70
2023-02-03T18:07:09.077Z,0.50
2023-02-03T18:09:35.833Z,4.03
2023-02-03T18:12:02.688Z,3.17
2023-02-03T18:14:29.579Z,2.45
2023-02-03T18:16:56.380Z,1.55
2023-02-03T18:19:23.198Z,1.38
2023-02-03T18:21:49.968Z,1.60
2023-02-03T18:24:18.669Z,2.42
2023-02-03T18:26:50.241Z,0.88
2023-02-03T18:29:17.419Z,0.50
2023-02-03T18:31:44.401Z,0.60
2023-02-03T18:34:11.800Z,1.40
2023-02-03T18:39:06.252Z,0.73
2023-02-03T18:41:33.084Z,0.85
2023-02-03T18:43:59.891Z,0.70
2023-02-03T18:46:32.260Z,0.65
2023-02-03T18:48:59.310Z,0.60
2023-02-03T18:51:26.773Z,0.60
2023-02-03T18:53:58.742Z,1.90
2023-02-03T18:56:35.275Z,2.65
2023-02-03T18:59:09.910Z,1.80
2023-02-03T19:01:38.896Z,1.20
2023-02-03T19:04:06.318Z,1.40
2023-02-03T19:06:34.782Z,1.55
2023-02-03T19:09:02.488Z,1.90
2023-02-03T19:11:29.253Z,1.27
2023-02-03T19:13:56.269Z,0.75
2023-02-03T19:16:23.161Z,1.90
2023-02-03T19:18:49.929Z,0.85
2023-02-03T19:21:17.556Z,1.25
2023-02-03T19:23:44.399Z,2.67
2023-02-03T19:26:12.228Z,2.22
2023-02-03T19:28:40.622Z,1.25
2023-02-03T19:31:16.725Z,2.25
2023-02-03T19:33:43.946Z,4.07
2023-02-03T19:36:11.530Z,4.25
2023-02-03T19:38:38.882Z,2.28
2023-02-03T19:41:07.236Z,1.63
2023-02-03T19:43:34.054Z,4.90
2023-02-03T19:46:00.991Z,2.78
2023-02-03T19:48:27.910Z,1.90
2023-02-03T19:50:54.628Z,4.57
2023-02-03T19:53:21.785Z,4.43
2023-02-03T19:55:48.859Z,1.67
2023-02-03T19:58:16.021Z,3.63
2023-02-03T20:00:43.499Z,1.27
2023-02-03T20:03:10.812Z,1.77
2023-02-03T20:05:38.159Z,1.90
2023-02-03T20:08:05.730Z,0.85
2023-02-03T20:10:33.140Z,0.80
2023-02-03T20:13:00.697Z,2.20
2023-02-03T20:15:27.597Z,1.25
2023-02-03T20:17:54.691Z,2.72
2023-02-03T20:20:21.729Z,10.43
2023-02-03T20:22:49.149Z,3.00
2023-02-03T20:25:16.608Z,2.53
2023-02-03T20:27:43.464Z,1.77
2023-02-03T20:30:11.690Z,0.55
2023-02-03T20:32:39.268Z,0.75
2023-02-03T20:35:07.398Z,1.30
2023-02-03T20:37:36.386Z,5.68
2023-02-03T20:40:13.112Z,3.70
2023-02-03T20:42:40.233Z,4.25
2023-02-03T20:45:16.575Z,3.78
2023-02-03T20:47:44.419Z,1.52
2023-02-03T20:50:18.376Z,3.25
2023-02-03T20:52:46.775Z,1.25
2023-02-03T20:55:19.743Z,1.38
2023-02-03T21:00:20.559Z,2.10
2023-02-03T21:03:06.488Z,3.05
2023-02-03T21:05:38.606Z,2.83
2023-02-03T21:08:15.056Z,0.87
2023-02-03T21:10:43.520Z,1.25
2023-02-03T21:13:29.410Z,0.77
2023-02-03T21:16:00.113Z,1.08
2023-02-03T21:18:47.149Z,1.55
2023-02-03T21:21:24.926Z,1.23
2023-02-03T21:23:52.823Z,0.47
2023-02-03T21:26:27.069Z,2.95
2023-02-03T21:29:01.950Z,1.15
2023-02-03T21:31:32.179Z,0.88
2023-02-03T21:34:04.848Z,1.10
2023-02-03T21:36:35.660Z,1.08
2023-02-03T21:39:03.300Z,0.93
2023-02-03T21:41:33.566Z,0.88
2023-02-03T21:44:01.040Z,0.52
2023-02-03T21:46:32.937Z,0.70
2023-02-03T21:49:04.258Z,0.50
2023-02-03T21:51:36.237Z,0.35
2023-02-03T21:54:27.489Z,0.57
2023-02-03T21:56:54.717Z,0.40
2023-02-03T21:59:29.722Z,0.40
2023-02-03T22:02:00.312Z,0.30
2023-02-03T22:04:29.048Z,0.30
2023-02-03T22:06:56.371Z,0.40
2023-02-03T22:09:27.322Z,0.45
2023-02-03T22:11:54.268Z,0.30
2023-02-03T22:14:21.254Z,0.32
2023-02-03T22:16:48.387Z,0.65
2023-02-03T22:19:17.783Z,0.50
2023-02-03T22:21:45.076Z,0.30
2023-02-03T22:24:12.213Z,0.40
2023-02-03T22:26:38.984Z,0.20
2023-02-03T22:29:05.898Z,0.32
2023-02-03T22:31:33.006Z,0.20
2023-02-03T22:33:59.854Z,0.50
2023-02-03T22:36:26.690Z,0.28
2023-02-03T22:38:53.488Z,0.25
2023-02-03T22:41:21.069Z,0.30
2023-02-03T22:43:48.207Z,0.28
2023-02-03T22:46:15.172Z,0.30
2023-02-03T22:48:42.027Z,0.43
2023-02-03T22:51:08.878Z,0.30
2023-02-03T22:53:35.881Z,0.60
2023-02-03T22:56:02.862Z,0.38
2023-02-03T22:58:29.637Z,0.40
2023-02-03T23:00:56.418Z,0.50
2023-02-03T23:03:23.290Z,0.30
2023-02-03T23:05:50.177Z,0.40
2023-02-03T23:08:16.949Z,0.45
2023-02-03T23:10:43.692Z,0.40
2023-02-03T23:13:10.512Z,0.40
2023-02-03T23:15:37.327Z,0.30
2023-02-03T23:18:04.220Z,0.40
2023-02-03T23:20:31.282Z,0.20
2023-02-03T23:22:58.321Z,0.28
2023-02-03T23:25:25.145Z,0.30
2023-02-03T23:27:52.002Z,0.28
2023-02-03T23:30:19.293Z,0.38
2023-02-03T23:32:46.021Z,0.20
2023-02-03T23:35:31.722Z,0.40
2023-02-03T23:37:58.420Z,0.40
2023-02-03T23:40:25.217Z,0.40
2023-02-03T23:42:52.013Z,0.40
2023-02-03T23:45:18.916Z,0.22
2023-02-03T23:47:46.674Z,0.30
2023-02-03T23:50:17.213Z,0.20
2023-02-03T23:52:43.994Z,0.20
2023-02-03T23:55:17.804Z,0.30
2023-02-03T23:57:45.530Z,0.40
